Johnston, Rhode Island
Current Conditions -  °F | °C
As of 4:35 PM on Monday 24 Nov 2014 (Local Time) from KSFZ Reporting Station
Overcast Overcast  
Wind Chill: 61°   Ceiling: 800
Heat Index: 61°   Visibility: 10mi
Dew Point: 54°   Wind: 10mph
Humidity: 77%   Direction: 210°SSW
Pressure: 29.63"   Gusts: 21mph
Location:  41.83°N, 71.5°W
Report Text: KSFZ 242135Z 21009G18KT 170V260 10SM OVC008 16/12 A2963 RMK AO1
Loading
Personal Weather Stations






























Interactive Weather Map New forecast layout! Learn more

10-Day Weather Forecast

Advertisements
Track Severe Weather on mobile